createdAt,value
2022-12-31T00:01:58.918Z,7.25
2022-12-31T00:04:34.990Z,6.55
2022-12-31T00:07:11.348Z,5.90
2022-12-31T00:09:47.369Z,7.22
2022-12-31T00:12:50.492Z,8.77
2022-12-31T00:15:29.090Z,10.60
2022-12-31T00:18:07.899Z,9.93
2022-12-31T00:20:46.932Z,7.68
2022-12-31T00:23:22.902Z,7.40
2022-12-31T00:25:59.021Z,10.95
2022-12-31T00:28:52.035Z,9.10
2022-12-31T00:31:32.731Z,11.25
2022-12-31T00:34:09.363Z,12.05
2022-12-31T00:36:47.761Z,11.07
2022-12-31T00:39:23.715Z,9.48
2022-12-31T00:41:59.517Z,7.93
2022-12-31T00:44:37.547Z,7.65
2022-12-31T00:47:13.207Z,8.10
2022-12-31T00:49:49.008Z,11.27
2022-12-31T00:52:26.482Z,9.00
2022-12-31T00:55:02.924Z,9.90
2022-12-31T00:57:38.251Z,8.07
2022-12-31T01:00:17.106Z,7.75
2022-12-31T01:02:56.851Z,8.68
2022-12-31T01:05:34.846Z,9.07
2022-12-31T01:08:10.523Z,7.13
2022-12-31T01:11:02.060Z,6.82
2022-12-31T01:13:37.899Z,10.93
2022-12-31T01:16:17.715Z,7.47
2022-12-31T01:18:56.142Z,10.32
2022-12-31T01:21:31.968Z,10.35
2022-12-31T01:24:09.169Z,6.95
2022-12-31T01:26:46.596Z,7.68
2022-12-31T01:29:22.382Z,7.03
2022-12-31T01:31:59.780Z,8.48
2022-12-31T01:34:35.883Z,9.25
2022-12-31T01:37:14.797Z,7.32
2022-12-31T01:39:50.309Z,7.78
2022-12-31T01:42:26.105Z,7.72
2022-12-31T01:45:02.079Z,7.30
2022-12-31T01:47:49.012Z,9.40
2022-12-31T01:50:28.766Z,8.40
2022-12-31T01:53:06.845Z,4.70
2022-12-31T01:55:51.189Z,8.90
2022-12-31T01:58:29.903Z,9.80
2022-12-31T02:01:05.438Z,8.05
2022-12-31T02:03:43.646Z,7.88
2022-12-31T02:06:25.191Z,8.50
2022-12-31T02:09:02.867Z,7.88
2022-12-31T02:11:39.944Z,6.25
2022-12-31T02:14:19.394Z,6.20
2022-12-31T02:17:00.999Z,7.75
2022-12-31T02:20:00.767Z,7.47
2022-12-31T02:22:50.930Z,6.22
2022-12-31T02:25:59.484Z,6.68
2022-12-31T02:28:55.897Z,7.85
2022-12-31T02:31:38.311Z,6.10
2022-12-31T02:34:19.416Z,8.00
2022-12-31T02:36:57.822Z,7.68
2022-12-31T02:39:35.059Z,6.95
2022-12-31T02:42:13.270Z,7.88
2022-12-31T02:44:48.818Z,6.40
2022-12-31T02:47:35.704Z,8.48
2022-12-31T02:50:31.355Z,8.18
2022-12-31T02:53:23.266Z,11.25
2022-12-31T02:56:05.717Z,8.80
2022-12-31T02:58:59.847Z,8.43
2022-12-31T03:01:56.146Z,10.23
2022-12-31T03:04:39.022Z,8.77
2022-12-31T03:07:15.038Z,8.93
2022-12-31T03:09:51.628Z,6.53
2022-12-31T03:12:45.677Z,10.23
2022-12-31T03:15:24.768Z,9.77
2022-12-31T03:18:01.218Z,8.90
2022-12-31T03:20:54.914Z,6.35
2022-12-31T03:23:33.222Z,7.32
2022-12-31T03:26:11.864Z,7.05
2022-12-31T03:28:49.438Z,9.07
2022-12-31T03:31:23.999Z,8.65
2022-12-31T03:33:59.214Z,9.90
2022-12-31T03:36:36.148Z,9.93
2022-12-31T03:39:11.778Z,7.72
2022-12-31T03:41:46.931Z,8.73
2022-12-31T03:44:22.077Z,9.00
2022-12-31T03:46:57.226Z,6.53
2022-12-31T03:49:32.177Z,7.10
2022-12-31T03:52:08.532Z,8.88
2022-12-31T03:54:43.871Z,8.15
2022-12-31T03:57:19.555Z,8.82
2022-12-31T03:59:54.286Z,8.73
2022-12-31T04:02:29.631Z,9.82
2022-12-31T04:05:04.961Z,10.32
2022-12-31T04:07:41.832Z,7.47
2022-12-31T04:10:17.412Z,10.20
2022-12-31T04:12:52.593Z,6.57
2022-12-31T04:15:33.582Z,8.60
2022-12-31T04:18:14.383Z,6.93
2022-12-31T04:21:02.502Z,7.80
2022-12-31T04:23:56.181Z,7.97
2022-12-31T04:26:44.890Z,11.57
2022-12-31T04:29:28.398Z,10.52
2022-12-31T04:32:19.896Z,10.00
2022-12-31T04:35:08.505Z,13.32
2022-12-31T04:37:52.327Z,13.55
2022-12-31T04:40:35.392Z,8.70
2022-12-31T04:43:13.676Z,8.10
2022-12-31T04:45:57.904Z,11.90
2022-12-31T04:48:41.742Z,9.73
2022-12-31T04:51:19.850Z,9.38
2022-12-31T04:54:00.430Z,9.35
2022-12-31T04:57:02.795Z,11.02
2022-12-31T04:59:42.146Z,9.13
2022-12-31T05:02:22.597Z,9.02
2022-12-31T05:05:02.312Z,12.68
2022-12-31T05:07:42.356Z,7.90
2022-12-31T05:10:18.205Z,11.50
2022-12-31T05:12:58.859Z,12.75
2022-12-31T05:15:39.431Z,13.48
2022-12-31T05:18:19.134Z,13.05
2022-12-31T05:21:02.665Z,10.10
2022-12-31T05:23:40.606Z,8.73
2022-12-31T05:26:24.572Z,8.30
2022-12-31T05:29:05.355Z,9.88
2022-12-31T05:32:01.894Z,10.63
2022-12-31T05:34:50.535Z,10.98
2022-12-31T05:37:34.443Z,12.48
2022-12-31T05:40:28.403Z,12.13
2022-12-31T05:43:12.219Z,13.20
2022-12-31T05:46:01.881Z,12.48
2022-12-31T05:48:43.295Z,11.23
2022-12-31T05:51:38.510Z,12.95
2022-12-31T05:54:22.943Z,11.02
2022-12-31T05:56:59.697Z,11.25
2022-12-31T05:59:35.336Z,10.48
2022-12-31T06:02:13.893Z,9.75
2022-12-31T06:04:51.201Z,10.55
2022-12-31T06:07:26.714Z,12.68
2022-12-31T06:10:02.347Z,10.50
2022-12-31T06:12:37.316Z,13.93
2022-12-31T06:15:12.768Z,13.93
2022-12-31T06:17:50.881Z,17.15
2022-12-31T06:20:28.018Z,12.25
2022-12-31T06:23:03.233Z,16.80
2022-12-31T06:25:41.116Z,11.75
2022-12-31T06:28:20.541Z,13.70
2022-12-31T06:31:03.291Z,10.45
2022-12-31T06:33:43.707Z,11.75
2022-12-31T06:36:20.808Z,14.05
2022-12-31T06:38:57.090Z,11.40
2022-12-31T06:41:33.270Z,13.77
2022-12-31T06:44:08.660Z,14.55
2022-12-31T06:46:44.592Z,12.00
2022-12-31T06:49:26.039Z,7.82
2022-12-31T06:52:01.551Z,12.40
2022-12-31T06:54:36.685Z,12.05
2022-12-31T06:57:13.747Z,11.88
2022-12-31T06:59:51.670Z,12.68
2022-12-31T07:02:36.302Z,10.52
2022-12-31T07:05:31.780Z,10.57
2022-12-31T07:08:17.304Z,10.70
2022-12-31T07:10:57.139Z,10.73
2022-12-31T07:13:46.000Z,9.32
2022-12-31T07:16:25.684Z,10.27
2022-12-31T07:19:04.553Z,9.70
2022-12-31T07:21:44.011Z,8.60
2022-12-31T07:24:21.370Z,10.15
2022-12-31T07:27:05.209Z,9.32
2022-12-31T07:29:53.128Z,11.95
2022-12-31T07:32:36.881Z,10.55
2022-12-31T07:35:22.751Z,10.88
2022-12-31T07:38:06.704Z,11.48
2022-12-31T07:40:43.558Z,12.35
2022-12-31T07:43:21.176Z,15.32
2022-12-31T07:45:58.047Z,8.98
2022-12-31T07:48:33.342Z,14.90
2022-12-31T07:51:08.337Z,10.13
2022-12-31T07:53:45.707Z,9.30
2022-12-31T07:56:21.169Z,13.65
2022-12-31T07:59:12.775Z,12.00
2022-12-31T08:01:53.924Z,13.50
2022-12-31T08:04:33.542Z,18.33
2022-12-31T08:07:15.072Z,15.25
2022-12-31T08:09:58.247Z,16.70
2022-12-31T08:12:36.749Z,13.45
2022-12-31T08:15:17.692Z,17.42
2022-12-31T08:17:52.161Z,16.02
2022-12-31T08:20:27.639Z,15.00
2022-12-31T08:23:27.596Z,18.30
2022-12-31T08:26:11.716Z,16.38
2022-12-31T08:28:53.264Z,15.93
2022-12-31T08:31:29.242Z,20.73
2022-12-31T08:34:10.965Z,18.92
2022-12-31T08:36:51.108Z,19.45
2022-12-31T08:39:29.824Z,18.23
2022-12-31T08:42:07.199Z,19.65
2022-12-31T08:44:45.188Z,16.63
2022-12-31T08:47:23.983Z,16.45
2022-12-31T08:50:00.275Z,16.33
2022-12-31T08:52:36.087Z,18.10
2022-12-31T08:55:12.358Z,21.45
2022-12-31T08:57:54.341Z,24.38
2022-12-31T09:00:31.027Z,22.83
2022-12-31T09:03:21.655Z,19.60
2022-12-31T09:06:02.129Z,22.13
2022-12-31T09:08:41.681Z,22.27
2022-12-31T09:11:23.726Z,20.63
2022-12-31T09:14:25.113Z,22.25
2022-12-31T09:17:07.942Z,22.02
2022-12-31T09:19:44.705Z,20.20
2022-12-31T09:22:19.544Z,20.73
2022-12-31T09:24:54.342Z,21.60
2022-12-31T09:27:31.143Z,19.98
2022-12-31T09:30:11.970Z,18.15
2022-12-31T09:33:00.623Z,25.35
2022-12-31T09:35:44.135Z,19.63
2022-12-31T09:38:22.021Z,21.98
2022-12-31T09:41:08.081Z,20.90
2022-12-31T09:43:58.971Z,18.85
2022-12-31T09:46:49.496Z,23.40
2022-12-31T09:49:47.169Z,21.38
2022-12-31T09:52:34.146Z,19.88
2022-12-31T09:55:32.050Z,23.58
2022-12-31T09:58:14.627Z,24.88
2022-12-31T10:00:54.263Z,22.98
2022-12-31T10:03:37.724Z,21.45
2022-12-31T10:06:27.474Z,22.05
2022-12-31T10:09:14.276Z,17.23
2022-12-31T10:12:05.603Z,23.92
2022-12-31T10:15:09.266Z,28.52
2022-12-31T10:17:53.945Z,20.75
2022-12-31T10:20:38.842Z,20.00
2022-12-31T10:23:45.345Z,21.67
2022-12-31T10:26:26.389Z,18.17
2022-12-31T10:29:01.590Z,23.05
2022-12-31T10:31:45.771Z,21.98
2022-12-31T10:34:21.567Z,22.23
2022-12-31T10:37:03.953Z,22.30
2022-12-31T10:39:42.413Z,20.63
2022-12-31T10:42:27.694Z,22.63
2022-12-31T10:45:16.019Z,26.15
2022-12-31T10:48:26.365Z,19.75
2022-12-31T10:51:20.818Z,23.52
2022-12-31T10:54:04.064Z,17.60
2022-12-31T10:56:56.734Z,19.50
2022-12-31T10:59:55.794Z,21.02
2022-12-31T11:02:56.990Z,23.35
2022-12-31T11:05:49.535Z,18.92
2022-12-31T11:08:35.508Z,19.63
2022-12-31T11:11:24.060Z,16.75
2022-12-31T11:14:34.091Z,20.65
2022-12-31T11:17:36.938Z,20.67
2022-12-31T11:20:28.524Z,20.48
2022-12-31T11:23:07.762Z,19.55
2022-12-31T11:25:49.218Z,23.48
2022-12-31T11:28:33.872Z,22.92
2022-12-31T11:31:23.841Z,21.77
2022-12-31T11:34:14.199Z,23.80
2022-12-31T11:36:52.799Z,16.50
2022-12-31T11:39:34.442Z,18.70
2022-12-31T11:42:17.763Z,23.38
2022-12-31T11:44:57.762Z,22.38
2022-12-31T11:48:27.927Z,19.95
2022-12-31T11:50:53.331Z,21.48
2022-12-31T11:53:51.985Z,19.77
2022-12-31T11:56:33.595Z,15.45
2022-12-31T11:59:19.265Z,18.45
2022-12-31T12:02:05.160Z,19.45
2022-12-31T12:04:43.198Z,17.13
2022-12-31T12:07:19.887Z,19.17
2022-12-31T12:09:54.495Z,15.88
2022-12-31T12:12:31.087Z,19.17
2022-12-31T12:15:05.882Z,21.60
2022-12-31T12:17:43.550Z,21.80
2022-12-31T12:20:22.918Z,22.63
2022-12-31T12:22:59.827Z,18.13
2022-12-31T12:25:43.097Z,20.65
2022-12-31T12:28:25.907Z,18.70
2022-12-31T12:31:06.360Z,17.58
2022-12-31T12:33:50.566Z,19.08
2022-12-31T12:36:27.478Z,22.13
2022-12-31T12:39:10.387Z,24.88
2022-12-31T12:41:45.961Z,21.67
2022-12-31T12:44:23.048Z,18.70
2022-12-31T12:46:57.834Z,20.88
2022-12-31T12:49:37.391Z,15.35
2022-12-31T12:52:26.735Z,17.80
2022-12-31T12:55:07.979Z,17.58
2022-12-31T12:57:49.278Z,18.42
2022-12-31T13:00:26.605Z,18.02
2022-12-31T13:03:13.547Z,15.70
2022-12-31T13:05:56.792Z,20.65
2022-12-31T13:08:40.224Z,16.35
2022-12-31T13:11:27.665Z,17.58
2022-12-31T13:14:06.406Z,20.33
2022-12-31T13:16:44.544Z,19.05
2022-12-31T13:19:23.572Z,19.85
2022-12-31T13:22:03.685Z,18.60
2022-12-31T13:24:49.480Z,19.80
2022-12-31T13:27:25.335Z,21.27
2022-12-31T13:30:01.683Z,18.27
2022-12-31T13:32:44.479Z,19.45
2022-12-31T13:35:26.793Z,18.50
2022-12-31T13:38:05.975Z,22.38
2022-12-31T13:40:45.741Z,24.13
2022-12-31T13:43:22.905Z,18.20
2022-12-31T13:46:00.496Z,22.10
2022-12-31T13:48:37.814Z,19.83
2022-12-31T13:51:17.493Z,21.50
2022-12-31T13:54:03.484Z,25.27
2022-12-31T13:56:43.579Z,20.20
2022-12-31T13:59:23.605Z,21.20
2022-12-31T14:02:05.353Z,24.50
2022-12-31T14:04:47.021Z,31.25
2022-12-31T14:07:34.135Z,27.88
2022-12-31T14:10:19.665Z,23.58
2022-12-31T14:13:04.791Z,21.83
2022-12-31T14:15:45.909Z,15.60
2022-12-31T14:18:27.638Z,20.45
2022-12-31T14:21:08.050Z,15.95
2022-12-31T14:23:50.788Z,22.25
2022-12-31T14:26:34.932Z,21.92
2022-12-31T14:29:21.681Z,18.02
2022-12-31T14:32:19.837Z,18.35
2022-12-31T14:35:04.704Z,19.52
2022-12-31T14:37:44.410Z,22.38
2022-12-31T14:40:24.636Z,21.52
2022-12-31T14:43:14.670Z,21.48
2022-12-31T14:46:00.324Z,23.17
2022-12-31T14:48:48.483Z,20.85
2022-12-31T14:51:24.127Z,20.55
2022-12-31T14:54:00.754Z,19.30
2022-12-31T14:56:44.157Z,19.45
2022-12-31T14:59:38.808Z,28.52
2022-12-31T15:02:32.812Z,22.40
2022-12-31T15:05:21.444Z,17.95
2022-12-31T15:08:02.438Z,26.73
2022-12-31T15:10:43.623Z,26.90
2022-12-31T15:13:25.236Z,19.88
2022-12-31T15:16:17.215Z,22.20
2022-12-31T15:19:12.570Z,20.48
2022-12-31T15:21:53.866Z,18.38
2022-12-31T15:24:32.295Z,17.52
2022-12-31T15:27:09.708Z,16.67
2022-12-31T15:29:49.001Z,22.70
2022-12-31T15:32:27.769Z,24.38
2022-12-31T15:35:29.837Z,25.45
2022-12-31T15:38:08.281Z,21.40
2022-12-31T15:40:48.820Z,24.20
2022-12-31T15:43:27.093Z,22.77
2022-12-31T15:46:02.123Z,18.67
2022-12-31T15:48:41.628Z,14.13
2022-12-31T15:51:20.847Z,10.15
2022-12-31T15:53:57.467Z,13.05
2022-12-31T15:56:36.315Z,13.45
2022-12-31T15:59:13.254Z,10.48
2022-12-31T16:01:50.589Z,14.90
2022-12-31T16:04:29.197Z,11.68
2022-12-31T16:07:09.493Z,10.82
2022-12-31T16:09:46.775Z,11.75
2022-12-31T16:12:32.760Z,8.32
2022-12-31T16:15:11.029Z,7.95
2022-12-31T16:17:47.021Z,10.95
2022-12-31T16:20:29.728Z,12.80
2022-12-31T16:23:19.497Z,13.95
2022-12-31T16:25:56.440Z,12.50
2022-12-31T16:28:35.938Z,9.32
2022-12-31T16:31:18.394Z,11.90
2022-12-31T16:33:54.805Z,10.70
2022-12-31T16:36:30.724Z,8.95
2022-12-31T16:39:28.695Z,11.32
2022-12-31T16:42:24.440Z,10.13
2022-12-31T16:45:00.809Z,9.60
2022-12-31T16:47:41.059Z,9.13
2022-12-31T16:50:21.581Z,10.75
2022-12-31T16:53:03.136Z,8.68
2022-12-31T16:55:41.033Z,8.68
2022-12-31T16:58:23.033Z,9.93
2022-12-31T17:00:59.737Z,9.40
2022-12-31T17:03:36.376Z,7.78
2022-12-31T17:06:19.710Z,8.65
2022-12-31T17:09:22.447Z,8.57
2022-12-31T17:12:12.272Z,10.98
2022-12-31T17:14:56.398Z,10.18
2022-12-31T17:17:37.893Z,10.18
2022-12-31T17:20:24.133Z,10.48
2022-12-31T17:23:02.606Z,13.55
2022-12-31T17:25:40.482Z,9.65
2022-12-31T17:28:27.747Z,13.65
2022-12-31T17:31:06.203Z,9.82
2022-12-31T17:33:41.740Z,9.77
2022-12-31T17:36:27.100Z,9.23
2022-12-31T17:39:21.516Z,7.78
2022-12-31T17:42:00.120Z,9.93
2022-12-31T17:44:39.229Z,10.40
2022-12-31T17:47:17.720Z,9.38
2022-12-31T17:49:54.121Z,9.38
2022-12-31T17:52:30.098Z,10.45
2022-12-31T17:55:05.570Z,11.93
2022-12-31T17:57:41.762Z,11.27
2022-12-31T18:00:24.764Z,13.32
2022-12-31T18:03:00.376Z,13.00
2022-12-31T18:05:36.434Z,16.92
2022-12-31T18:08:12.171Z,12.35
2022-12-31T18:10:49.754Z,16.98
2022-12-31T18:13:27.768Z,17.88
2022-12-31T18:16:05.249Z,15.30
2022-12-31T18:18:41.787Z,18.83
2022-12-31T18:21:24.788Z,21.25
2022-12-31T18:26:37.006Z,18.92
2022-12-31T18:29:20.252Z,14.40
2022-12-31T18:31:58.343Z,17.95
2022-12-31T18:34:33.976Z,18.00
2022-12-31T18:37:21.455Z,16.65
2022-12-31T18:39:57.692Z,18.98
2022-12-31T18:42:34.867Z,14.32
2022-12-31T18:45:17.428Z,13.13
2022-12-31T18:47:55.725Z,17.45
2022-12-31T18:50:31.376Z,18.48
2022-12-31T18:53:08.144Z,18.58
2022-12-31T18:55:45.055Z,15.55
2022-12-31T18:58:21.124Z,16.10
2022-12-31T19:00:57.013Z,15.63
2022-12-31T19:03:34.875Z,13.35
2022-12-31T19:06:10.552Z,12.35
2022-12-31T19:08:47.213Z,17.42
2022-12-31T19:11:23.135Z,12.02
2022-12-31T19:13:59.057Z,17.95
2022-12-31T19:16:34.787Z,14.70
2022-12-31T19:19:12.618Z,13.43
2022-12-31T19:21:49.040Z,9.68
2022-12-31T19:24:28.346Z,13.30
2022-12-31T19:27:04.933Z,10.85
2022-12-31T19:29:40.733Z,13.48
2022-12-31T19:32:16.527Z,10.77
2022-12-31T19:34:55.492Z,11.30
2022-12-31T19:37:31.068Z,15.43
2022-12-31T19:40:08.230Z,12.00
2022-12-31T19:42:43.813Z,13.27
2022-12-31T19:45:19.663Z,16.42
2022-12-31T19:47:57.150Z,15.63
2022-12-31T19:50:35.198Z,14.43
2022-12-31T19:53:12.665Z,15.77
2022-12-31T19:55:49.225Z,13.57
2022-12-31T19:58:27.071Z,15.95
2022-12-31T20:01:03.463Z,15.40
2022-12-31T20:03:38.245Z,21.00
2022-12-31T20:06:16.296Z,15.60
2022-12-31T20:08:50.981Z,16.45
2022-12-31T20:11:27.002Z,18.77
2022-12-31T20:14:01.752Z,18.27
2022-12-31T20:16:36.944Z,20.63
2022-12-31T20:19:13.582Z,18.40
2022-12-31T20:21:51.391Z,19.67
2022-12-31T20:24:27.183Z,20.73
2022-12-31T20:27:02.761Z,21.75
2022-12-31T20:29:38.461Z,22.75
2022-12-31T20:32:14.474Z,17.25
2022-12-31T20:34:50.397Z,17.25
2022-12-31T20:37:27.991Z,24.27
2022-12-31T20:40:03.830Z,17.00
2022-12-31T20:42:41.912Z,17.60
2022-12-31T20:45:17.749Z,16.60
2022-12-31T20:47:55.129Z,17.88
2022-12-31T20:50:29.852Z,21.55
2022-12-31T20:53:06.554Z,20.80
2022-12-31T20:55:43.097Z,20.08
2022-12-31T20:58:19.527Z,21.02
2022-12-31T21:00:56.670Z,18.20
2022-12-31T21:06:28.237Z,17.45
2022-12-31T21:09:07.507Z,16.50
2022-12-31T21:11:58.814Z,17.75
2022-12-31T21:14:37.475Z,20.40
2022-12-31T21:17:16.815Z,16.50
2022-12-31T21:19:52.881Z,14.98
2022-12-31T21:22:28.433Z,18.08
2022-12-31T21:25:06.584Z,19.25
2022-12-31T21:27:42.342Z,13.85
2022-12-31T21:30:20.174Z,11.60
2022-12-31T21:32:55.956Z,15.82
2022-12-31T21:35:53.301Z,11.23
2022-12-31T21:38:27.511Z,15.07
2022-12-31T21:41:07.614Z,13.35
2022-12-31T21:43:42.909Z,14.18
2022-12-31T21:46:19.686Z,13.93
2022-12-31T21:48:59.965Z,16.88
2022-12-31T21:51:56.607Z,12.23
2022-12-31T21:54:48.005Z,14.52
2022-12-31T21:57:26.074Z,15.50
2022-12-31T22:00:41.117Z,14.90
2022-12-31T22:03:27.957Z,11.55
2022-12-31T22:06:07.450Z,14.18
2022-12-31T22:08:47.408Z,14.73
2022-12-31T22:11:23.917Z,16.20
2022-12-31T22:14:02.314Z,13.95
2022-12-31T22:16:37.848Z,13.25
2022-12-31T22:19:13.777Z,12.93
2022-12-31T22:21:49.300Z,15.95
2022-12-31T22:24:26.642Z,16.30
2022-12-31T22:27:28.797Z,15.50
2022-12-31T22:30:00.915Z,16.88
2022-12-31T22:32:36.968Z,12.43
2022-12-31T22:35:13.427Z,13.48
2022-12-31T22:38:00.890Z,17.05
2022-12-31T22:40:42.710Z,13.88
2022-12-31T22:43:26.199Z,11.32
2022-12-31T22:46:12.964Z,14.73
2022-12-31T22:48:48.656Z,15.35
2022-12-31T22:51:56.582Z,17.38
2022-12-31T22:54:29.133Z,16.38
2022-12-31T22:57:06.235Z,13.93
2022-12-31T22:59:48.727Z,15.45
2022-12-31T23:02:29.151Z,15.45
2022-12-31T23:05:14.783Z,12.95
2022-12-31T23:07:51.334Z,17.48
2022-12-31T23:10:45.232Z,15.57
2022-12-31T23:13:37.398Z,14.00
2022-12-31T23:16:29.333Z,17.25
2022-12-31T23:19:23.195Z,15.93
2022-12-31T23:22:19.066Z,15.00
2022-12-31T23:25:02.698Z,10.88
2022-12-31T23:27:41.920Z,13.45
2022-12-31T23:30:19.115Z,12.23
2022-12-31T23:32:57.317Z,9.82
2022-12-31T23:35:37.599Z,13.55
2022-12-31T23:38:13.377Z,13.25
2022-12-31T23:40:49.721Z,14.20
2022-12-31T23:43:29.180Z,13.88
2022-12-31T23:46:05.856Z,12.50
2022-12-31T23:48:41.551Z,10.27
2022-12-31T23:51:19.381Z,15.95
2022-12-31T23:53:55.503Z,8.63
2022-12-31T23:56:31.552Z,9.02
2022-12-31T23:59:07.173Z,9.25
